createdAt,value
2019-02-26T00:03:07.597Z,7.22
2019-02-26T00:08:17.021Z,6.85
2019-02-26T00:13:23.424Z,7.35
2019-02-26T00:18:29.407Z,7.50
2019-02-26T00:23:35.246Z,6.92
2019-02-26T00:28:43.606Z,7.83
2019-02-26T00:33:48.798Z,7.40
2019-02-26T00:38:56.022Z,7.30
2019-02-26T00:44:04.308Z,6.92
2019-02-26T00:49:10.313Z,6.90
2019-02-26T00:54:20.155Z,6.42
2019-02-26T00:59:24.116Z,7.00
2019-02-26T01:04:31.516Z,6.30
2019-02-26T01:09:38.057Z,7.10
2019-02-26T01:14:45.789Z,6.03
2019-02-26T01:19:51.336Z,7.20
2019-02-26T01:24:58.462Z,6.17
2019-02-26T01:30:04.367Z,6.35
2019-02-26T01:35:11.127Z,6.08
2019-02-26T01:40:21.030Z,5.83
2019-02-26T01:45:27.135Z,6.15
2019-02-26T01:50:33.410Z,5.80
2019-02-26T01:55:42.122Z,5.83
2019-02-26T02:00:47.647Z,6.22
2019-02-26T02:05:54.804Z,5.75
2019-02-26T02:11:02.414Z,5.97
2019-02-26T02:16:09.064Z,5.58
2019-02-26T02:21:15.167Z,6.08
2019-02-26T02:26:22.346Z,5.05
2019-02-26T02:31:31.246Z,5.47
2019-02-26T02:36:36.055Z,5.75
2019-02-26T02:41:42.964Z,5.70
2019-02-26T02:46:49.097Z,5.40
2019-02-26T02:51:55.606Z,5.15
2019-02-26T02:57:02.493Z,5.90
2019-02-26T03:02:09.899Z,5.60
2019-02-26T03:07:17.846Z,5.33
2019-02-26T03:12:24.188Z,5.58
2019-02-26T03:17:30.018Z,5.30
2019-02-26T03:22:36.891Z,5.50
2019-02-26T03:27:42.976Z,5.40
2019-02-26T03:32:52.180Z,5.33
2019-02-26T03:37:58.059Z,5.65
2019-02-26T03:43:04.705Z,5.05
2019-02-26T03:48:10.355Z,5.28
2019-02-26T03:53:16.349Z,5.83
2019-02-26T03:58:22.137Z,5.45
2019-02-26T04:03:29.657Z,5.53
2019-02-26T04:08:36.097Z,5.35
2019-02-26T04:13:43.348Z,5.70
2019-02-26T04:18:51.980Z,5.55
2019-02-26T04:23:58.634Z,5.30
2019-02-26T04:29:27.676Z,4.85
2019-02-26T04:35:00.500Z,4.78
2019-02-26T04:40:38.955Z,5.22
2019-02-26T04:46:10.739Z,4.90
2019-02-26T04:51:16.615Z,5.20
2019-02-26T04:56:22.357Z,4.87
2019-02-26T05:01:28.858Z,4.80
2019-02-26T05:06:34.988Z,4.90
2019-02-26T05:11:41.157Z,4.90
2019-02-26T05:16:47.260Z,4.97
2019-02-26T05:21:56.764Z,5.00
2019-02-26T05:27:02.440Z,4.42
2019-02-26T05:32:09.303Z,4.70
2019-02-26T05:37:15.507Z,4.62
2019-02-26T05:42:21.256Z,4.50
2019-02-26T05:47:26.956Z,4.90
2019-02-26T05:52:33.217Z,4.67
2019-02-26T05:57:40.557Z,4.33
2019-02-26T06:02:50.433Z,4.85
2019-02-26T06:07:54.640Z,4.50
2019-02-26T06:13:02.185Z,4.85
2019-02-26T06:18:08.646Z,4.45
2019-02-26T06:23:14.686Z,4.10
2019-02-26T06:28:21.200Z,4.30
2019-02-26T06:33:31.713Z,3.83
2019-02-26T06:38:35.037Z,6.05
2019-02-26T06:43:45.046Z,5.83
2019-02-26T06:48:48.307Z,6.70
2019-02-26T06:53:56.522Z,6.53
2019-02-26T06:59:10.312Z,6.58
2019-02-26T07:04:17.816Z,6.83
2019-02-26T07:09:23.554Z,6.87
2019-02-26T07:14:30.236Z,6.92
2019-02-26T07:19:38.147Z,7.05
2019-02-26T07:24:46.275Z,6.72
2019-02-26T07:29:52.477Z,10.72
2019-02-26T07:34:58.805Z,7.90
2019-02-26T07:40:05.778Z,7.30
2019-02-26T07:45:14.940Z,6.47
2019-02-26T07:50:19.236Z,7.05
2019-02-26T07:55:27.420Z,7.08
2019-02-26T08:00:37.153Z,6.30
2019-02-26T08:05:41.966Z,6.42
2019-02-26T08:10:50.712Z,6.80
2019-02-26T08:15:58.190Z,7.00
2019-02-26T08:21:05.186Z,6.75
2019-02-26T08:26:10.866Z,6.42
2019-02-26T08:31:18.543Z,6.55
2019-02-26T08:36:25.106Z,6.25
2019-02-26T08:41:31.315Z,6.00
2019-02-26T08:46:37.900Z,6.37
2019-02-26T08:51:46.507Z,6.40
2019-02-26T08:56:52.088Z,5.55
2019-02-26T09:01:57.846Z,5.97
2019-02-26T09:07:04.447Z,6.00
2019-02-26T09:12:10.876Z,6.45
2019-02-26T09:17:18.769Z,13.95
2019-02-26T09:22:26.073Z,11.73
2019-02-26T09:27:33.982Z,10.60
2019-02-26T09:32:42.068Z,9.00
2019-02-26T09:37:52.090Z,8.63
2019-02-26T09:42:58.132Z,9.08
2019-02-26T09:48:03.886Z,8.03
2019-02-26T09:53:09.677Z,7.95
2019-02-26T09:58:15.870Z,7.72
2019-02-26T10:03:23.438Z,7.40
2019-02-26T10:08:30.643Z,6.80
2019-02-26T10:13:39.388Z,7.12
2019-02-26T10:18:45.007Z,6.60
2019-02-26T10:23:53.953Z,7.20
2019-02-26T10:29:04.385Z,6.60
2019-02-26T10:34:10.034Z,6.75
2019-02-26T10:39:17.643Z,8.68
2019-02-26T10:44:22.806Z,11.45
2019-02-26T10:49:28.806Z,15.25
2019-02-26T10:54:40.098Z,17.02
2019-02-26T10:59:45.069Z,18.60
2019-02-26T11:04:53.538Z,20.85
2019-02-26T11:09:59.095Z,23.55
2019-02-26T11:15:06.875Z,24.50
2019-02-26T11:20:13.547Z,31.70
2019-02-26T11:25:22.302Z,31.80
2019-02-26T11:30:30.284Z,36.33
2019-02-26T11:35:36.696Z,37.78
2019-02-26T11:40:43.056Z,35.85
2019-02-26T11:45:49.947Z,31.15
2019-02-26T11:51:00.797Z,29.18
2019-02-26T11:56:06.257Z,12.03
2019-02-26T12:01:14.719Z,17.95
2019-02-26T12:06:21.280Z,20.30
2019-02-26T12:11:27.852Z,19.52
2019-02-26T12:16:34.577Z,10.90
2019-02-26T12:21:40.947Z,7.08
2019-02-26T12:26:47.752Z,6.97
2019-02-26T12:31:55.726Z,6.80
2019-02-26T12:37:02.657Z,7.60
2019-02-26T12:42:10.570Z,9.65
2019-02-26T12:47:18.761Z,9.98
2019-02-26T12:52:27.624Z,9.23
2019-02-26T12:57:33.747Z,8.23
2019-02-26T13:02:43.316Z,9.28
2019-02-26T13:07:50.837Z,9.50
2019-02-26T13:13:00.044Z,8.20
2019-02-26T13:18:05.177Z,9.33
2019-02-26T13:23:20.798Z,8.98
2019-02-26T13:28:19.457Z,8.75
2019-02-26T13:33:32.584Z,7.85
2019-02-26T13:38:40.574Z,8.45
2019-02-26T13:43:40.979Z,7.72
2019-02-26T13:48:46.827Z,7.50
2019-02-26T13:53:53.135Z,7.45
2019-02-26T13:58:59.142Z,7.75
2019-02-26T14:04:05.525Z,6.92
2019-02-26T14:09:13.436Z,6.28
2019-02-26T14:14:19.606Z,8.30
2019-02-26T14:19:25.747Z,7.00
2019-02-26T14:24:31.999Z,6.92
2019-02-26T14:29:38.537Z,7.15
2019-02-26T14:34:44.817Z,7.03
2019-02-26T14:39:50.916Z,6.05
2019-02-26T14:44:57.396Z,6.15
2019-02-26T14:50:03.847Z,6.90
2019-02-26T14:55:09.765Z,6.30
2019-02-26T15:00:24.556Z,6.58
2019-02-26T15:05:30.433Z,6.00
2019-02-26T15:10:36.297Z,5.72
2019-02-26T15:15:42.382Z,6.42
2019-02-26T15:20:48.496Z,6.03
2019-02-26T15:25:54.386Z,5.95
2019-02-26T15:31:00.936Z,6.05
2019-02-26T15:36:07.226Z,5.53
2019-02-26T15:41:13.597Z,6.22
2019-02-26T15:46:19.457Z,6.25
2019-02-26T15:51:26.287Z,5.33
2019-02-26T15:56:33.424Z,5.83
2019-02-26T16:01:41.489Z,5.28
2019-02-26T16:06:48.367Z,6.22
2019-02-26T16:11:54.986Z,5.17
2019-02-26T16:17:02.038Z,4.78
2019-02-26T16:22:09.167Z,5.12
2019-02-26T16:27:15.656Z,5.62
2019-02-26T16:32:22.563Z,11.48
2019-02-26T16:37:28.897Z,11.40
2019-02-26T16:42:34.938Z,7.50
2019-02-26T16:47:40.969Z,6.47
2019-02-26T16:52:47.048Z,8.33
2019-02-26T16:57:52.927Z,5.33
2019-02-26T17:03:00.788Z,5.62
2019-02-26T17:08:11.714Z,5.00
2019-02-26T17:13:17.647Z,6.70
2019-02-26T17:18:24.038Z,5.80
2019-02-26T17:23:29.300Z,5.40
2019-02-26T17:28:35.678Z,5.62
2019-02-26T17:33:44.707Z,5.65
2019-02-26T17:38:51.755Z,4.97
2019-02-26T17:43:59.885Z,8.30
2019-02-26T17:49:06.445Z,8.30
2019-02-26T17:54:13.088Z,8.20
2019-02-26T17:59:19.228Z,7.97
2019-02-26T18:04:25.118Z,7.33
2019-02-26T18:09:34.430Z,7.17
2019-02-26T18:14:39.368Z,7.37
2019-02-26T18:21:05.979Z,6.67
2019-02-26T18:26:12.363Z,6.65
2019-02-26T18:31:26.275Z,6.97
2019-02-26T18:36:26.759Z,6.83
2019-02-26T18:41:35.115Z,7.50
2019-02-26T18:46:40.839Z,6.22
2019-02-26T18:51:46.550Z,6.72
2019-02-26T18:56:53.894Z,5.90
2019-02-26T19:02:03.304Z,6.20
2019-02-26T19:07:08.089Z,6.10
2019-02-26T19:12:14.629Z,5.85
2019-02-26T19:17:20.975Z,5.50
2019-02-26T19:22:27.217Z,4.72
2019-02-26T19:27:33.039Z,4.95
2019-02-26T19:32:39.788Z,4.70
2019-02-26T19:37:45.777Z,5.53
2019-02-26T19:42:53.451Z,5.58
2019-02-26T19:47:59.853Z,6.65
2019-02-26T19:53:06.322Z,5.70
2019-02-26T19:58:13.329Z,6.37
2019-02-26T20:03:19.089Z,5.67
2019-02-26T20:08:24.879Z,6.10
2019-02-26T20:13:31.674Z,6.55
2019-02-26T20:18:38.398Z,5.90
2019-02-26T20:23:44.559Z,6.25
2019-02-26T20:28:50.349Z,5.95
2019-02-26T20:33:56.569Z,5.92
2019-02-26T20:39:02.650Z,5.20
2019-02-26T20:44:10.109Z,5.47
2019-02-26T20:49:16.715Z,5.50
2019-02-26T20:54:22.816Z,5.20
2019-02-26T20:59:28.640Z,5.33
2019-02-26T21:04:34.769Z,5.40
2019-02-26T21:09:41.626Z,5.25
2019-02-26T21:14:47.509Z,5.15
2019-02-26T21:19:53.587Z,4.97
2019-02-26T21:24:59.269Z,5.42
2019-02-26T21:30:05.728Z,5.55
2019-02-26T21:35:11.984Z,5.45
2019-02-26T21:40:18.790Z,5.30
2019-02-26T21:45:24.686Z,5.00
2019-02-26T21:50:31.449Z,4.42
2019-02-26T21:55:44.453Z,5.47
2019-02-26T22:00:46.429Z,5.00
2019-02-26T22:05:52.169Z,5.12
2019-02-26T22:10:58.921Z,5.50
2019-02-26T22:16:04.953Z,5.35
2019-02-26T22:21:11.338Z,5.17
2019-02-26T22:26:17.739Z,4.97
2019-02-26T22:31:23.950Z,4.22
2019-02-26T22:36:33.298Z,4.80
2019-02-26T22:41:39.900Z,4.75
2019-02-26T22:46:45.935Z,4.55
2019-02-26T22:51:52.241Z,5.28
2019-02-26T22:56:57.840Z,5.20
2019-02-26T23:02:08.575Z,4.60
2019-02-26T23:07:12.289Z,5.42
2019-02-26T23:12:18.670Z,5.33
2019-02-26T23:17:25.420Z,4.62
2019-02-26T23:22:31.398Z,4.75
2019-02-26T23:27:37.192Z,4.72
2019-02-26T23:32:43.323Z,4.45
2019-02-26T23:37:49.558Z,4.30
2019-02-26T23:42:57.250Z,4.50
2019-02-26T23:48:07.670Z,4.37
2019-02-26T23:53:11.355Z,4.28
2019-02-26T23:58:17.803Z,4.60
